createdAt,value
2022-10-06T00:01:20.044Z,8.70
2022-10-06T00:03:49.812Z,9.20
2022-10-06T00:06:18.849Z,9.30
2022-10-06T00:08:47.976Z,9.30
2022-10-06T00:11:17.474Z,9.30
2022-10-06T00:13:45.751Z,9.20
2022-10-06T00:16:17.205Z,9.20
2022-10-06T00:18:45.873Z,9.20
2022-10-06T00:21:15.810Z,9.20
2022-10-06T00:23:43.808Z,9.10
2022-10-06T00:26:16.822Z,9.10
2022-10-06T00:28:47.389Z,9.10
2022-10-06T00:31:16.589Z,9.10
2022-10-06T00:33:45.052Z,9.10
2022-10-06T00:36:16.043Z,9.10
2022-10-06T00:38:44.854Z,9.10
2022-10-06T00:41:14.316Z,9.10
2022-10-06T00:43:53.775Z,9.00
2022-10-06T00:46:28.308Z,9.00
2022-10-06T00:49:01.267Z,9.00
2022-10-06T00:51:33.327Z,9.00
2022-10-06T00:54:02.262Z,9.00
2022-10-06T00:56:30.307Z,9.10
2022-10-06T00:58:58.293Z,9.00
2022-10-06T01:01:27.239Z,9.00
2022-10-06T01:04:01.232Z,8.90
2022-10-06T01:06:29.573Z,8.90
2022-10-06T01:08:59.737Z,8.90
2022-10-06T01:11:27.794Z,8.90
2022-10-06T01:13:56.445Z,8.90
2022-10-06T01:16:27.179Z,9.00
2022-10-06T01:18:57.253Z,9.00
2022-10-06T01:21:32.184Z,9.00
2022-10-06T01:24:06.766Z,9.00
2022-10-06T01:26:37.687Z,9.00
2022-10-06T01:29:05.827Z,9.00
2022-10-06T01:31:34.328Z,9.00
2022-10-06T01:34:02.439Z,8.90
2022-10-06T01:36:30.460Z,8.90
2022-10-06T01:38:58.913Z,8.90
2022-10-06T01:41:31.367Z,8.90
2022-10-06T01:43:59.567Z,8.90
2022-10-06T01:46:30.624Z,8.90
2022-10-06T01:48:59.154Z,8.90
2022-10-06T01:51:27.319Z,8.90
2022-10-06T01:53:55.752Z,8.90
2022-10-06T01:56:23.767Z,8.90
2022-10-06T01:58:54.024Z,8.90
2022-10-06T02:01:22.345Z,8.80
2022-10-06T02:03:50.393Z,8.90
2022-10-06T02:06:19.295Z,8.90
2022-10-06T02:08:47.956Z,8.90
2022-10-06T02:11:16.263Z,8.90
2022-10-06T02:13:45.719Z,8.90
2022-10-06T02:16:15.885Z,8.90
2022-10-06T02:18:44.501Z,8.90
2022-10-06T02:21:16.629Z,8.80
2022-10-06T02:23:45.007Z,8.80
2022-10-06T02:26:14.291Z,8.70
2022-10-06T02:28:42.334Z,8.70
2022-10-06T02:31:15.217Z,8.70
2022-10-06T02:33:45.146Z,8.70
2022-10-06T02:36:15.510Z,8.70
2022-10-06T02:38:45.931Z,8.70
2022-10-06T02:41:13.913Z,8.70
2022-10-06T02:43:42.518Z,8.70
2022-10-06T02:46:14.070Z,8.70
2022-10-06T02:48:48.248Z,8.70
2022-10-06T02:51:19.098Z,8.70
2022-10-06T02:53:48.559Z,8.60
2022-10-06T02:56:20.499Z,8.50
2022-10-06T02:58:49.407Z,8.50
2022-10-06T03:01:28.452Z,8.50
2022-10-06T03:03:59.650Z,8.60
2022-10-06T03:06:30.125Z,8.50
2022-10-06T03:09:18.837Z,8.50
2022-10-06T03:11:47.402Z,8.50
2022-10-06T03:14:22.324Z,8.50
2022-10-06T03:16:54.983Z,8.40
2022-10-06T03:19:27.341Z,8.40
2022-10-06T03:21:55.962Z,8.30
2022-10-06T03:24:31.904Z,8.30
2022-10-06T03:27:00.779Z,8.30
2022-10-06T03:29:31.324Z,8.40
2022-10-06T03:32:01.217Z,8.40
2022-10-06T03:34:30.695Z,8.40
2022-10-06T03:37:00.547Z,8.40
2022-10-06T03:39:30.330Z,8.40
2022-10-06T03:41:58.577Z,8.30
2022-10-06T03:44:27.132Z,8.30
2022-10-06T03:46:55.171Z,8.30
2022-10-06T03:49:24.732Z,8.30
2022-10-06T03:51:55.549Z,8.30
2022-10-06T03:54:29.250Z,8.20
2022-10-06T03:56:58.276Z,8.30
2022-10-06T03:59:31.238Z,8.20
2022-10-06T04:01:59.815Z,8.20
2022-10-06T04:04:33.091Z,8.20
2022-10-06T04:07:05.672Z,8.20
2022-10-06T04:09:36.607Z,8.20
2022-10-06T04:12:04.779Z,8.20
2022-10-06T04:14:35.591Z,8.20
2022-10-06T04:17:04.682Z,8.20
2022-10-06T04:19:37.323Z,8.10
2022-10-06T04:22:05.673Z,8.10
2022-10-06T04:24:35.083Z,8.10
2022-10-06T04:27:17.470Z,8.10
2022-10-06T04:29:51.334Z,8.10
2022-10-06T04:32:19.368Z,8.10
2022-10-06T04:34:48.734Z,8.10
2022-10-06T04:37:16.843Z,8.10
2022-10-06T04:39:45.971Z,8.20
2022-10-06T04:42:14.122Z,8.20
2022-10-06T04:44:42.343Z,8.10
2022-10-06T04:47:11.961Z,8.10
2022-10-06T04:49:40.885Z,8.10
2022-10-06T04:52:11.678Z,8.10
2022-10-06T04:54:42.169Z,8.10
2022-10-06T04:57:12.677Z,8.10
2022-10-06T05:00:08.894Z,8.10
2022-10-06T05:02:40.622Z,8.10
2022-10-06T05:05:09.222Z,8.10
2022-10-06T05:07:39.095Z,8.10
2022-10-06T05:10:07.609Z,8.10
2022-10-06T05:12:35.873Z,8.10
2022-10-06T05:15:06.112Z,8.00
2022-10-06T05:17:34.691Z,8.00
2022-10-06T05:20:02.746Z,8.00
2022-10-06T05:22:31.317Z,8.00
2022-10-06T05:25:01.048Z,8.00
2022-10-06T05:27:29.648Z,7.90
2022-10-06T05:29:58.188Z,8.00
2022-10-06T05:32:26.293Z,8.00
2022-10-06T05:34:54.750Z,8.00
2022-10-06T05:37:22.809Z,8.00
2022-10-06T05:39:52.390Z,8.00
2022-10-06T05:42:25.059Z,8.00
2022-10-06T05:44:56.113Z,8.00
2022-10-06T05:47:26.517Z,8.10
2022-10-06T05:49:54.897Z,8.10
2022-10-06T05:52:22.957Z,8.10
2022-10-06T05:54:51.801Z,8.10
2022-10-06T05:57:21.177Z,8.10
2022-10-06T05:59:50.441Z,8.10
2022-10-06T06:02:19.113Z,8.10
2022-10-06T06:04:47.855Z,8.20
2022-10-06T06:07:15.990Z,8.30
2022-10-06T06:09:46.133Z,8.30
2022-10-06T06:12:14.384Z,8.40
2022-10-06T06:15:09.735Z,8.50
2022-10-06T06:17:46.593Z,8.50
2022-10-06T06:20:14.982Z,8.60
2022-10-06T06:22:43.496Z,8.70
2022-10-06T06:25:12.928Z,8.80
2022-10-06T06:27:42.993Z,8.80
2022-10-06T06:30:13.665Z,8.90
2022-10-06T06:32:42.550Z,9.10
2022-10-06T06:35:11.565Z,9.20
2022-10-06T06:37:39.944Z,9.30
2022-10-06T06:40:10.796Z,9.40
2022-10-06T06:42:41.827Z,9.50
2022-10-06T06:45:21.065Z,9.50
2022-10-06T06:48:07.280Z,9.50
2022-10-06T06:50:35.906Z,9.60
2022-10-06T06:53:05.277Z,9.70
2022-10-06T06:55:36.124Z,9.70
2022-10-06T06:58:04.324Z,9.80
2022-10-06T07:00:36.338Z,9.80
2022-10-06T07:03:07.970Z,9.90
2022-10-06T07:05:36.907Z,10.10
2022-10-06T07:08:05.731Z,10.20
2022-10-06T07:10:36.244Z,10.30
2022-10-06T07:13:06.185Z,10.30
2022-10-06T07:15:53.201Z,10.50
2022-10-06T07:18:38.975Z,10.60
2022-10-06T07:21:29.365Z,10.60
2022-10-06T07:24:15.827Z,10.70
2022-10-06T07:26:44.290Z,10.80
2022-10-06T07:29:12.385Z,11.00
2022-10-06T07:31:43.574Z,11.20
2022-10-06T07:34:11.668Z,11.30
2022-10-06T07:36:40.709Z,11.40
2022-10-06T07:39:10.522Z,11.60
2022-10-06T07:41:39.554Z,11.70
2022-10-06T07:44:08.775Z,11.80
2022-10-06T07:46:38.559Z,11.90
2022-10-06T07:49:15.080Z,12.00
2022-10-06T07:51:43.093Z,12.10
2022-10-06T07:54:12.021Z,12.20
2022-10-06T07:57:00.504Z,12.30
2022-10-06T07:59:28.637Z,12.50
2022-10-06T08:01:57.206Z,12.60
2022-10-06T08:04:26.558Z,12.70
2022-10-06T08:06:58.390Z,12.80
2022-10-06T08:09:27.373Z,12.90
2022-10-06T08:11:55.925Z,13.30
2022-10-06T08:14:24.191Z,13.40
2022-10-06T08:16:53.833Z,13.40
2022-10-06T08:19:22.648Z,13.50
2022-10-06T08:21:52.155Z,13.60
2022-10-06T08:24:20.745Z,13.70
2022-10-06T08:26:49.443Z,13.80
2022-10-06T08:29:17.577Z,13.90
2022-10-06T08:31:45.610Z,14.10
2022-10-06T08:34:13.733Z,14.10
2022-10-06T08:36:57.007Z,14.10
2022-10-06T08:39:33.966Z,14.10
2022-10-06T08:42:01.970Z,14.10
2022-10-06T08:44:35.565Z,14.10
2022-10-06T08:47:07.780Z,14.30
2022-10-06T08:49:39.812Z,14.50
2022-10-06T08:52:20.405Z,14.50
2022-10-06T08:54:58.423Z,14.60
2022-10-06T08:57:31.110Z,14.70
2022-10-06T09:00:03.365Z,15.10
2022-10-06T09:02:33.655Z,15.30
2022-10-06T09:05:05.360Z,15.50
2022-10-06T09:07:42.073Z,15.60
2022-10-06T09:10:30.657Z,15.60
2022-10-06T09:13:05.381Z,15.70
2022-10-06T09:15:39.781Z,15.90
2022-10-06T09:18:14.521Z,16.00
2022-10-06T09:20:51.086Z,16.10
2022-10-06T09:23:40.626Z,16.30
2022-10-06T09:26:13.929Z,16.50
2022-10-06T09:28:46.140Z,16.60
2022-10-06T09:31:23.959Z,16.60
2022-10-06T09:33:53.731Z,16.60
2022-10-06T09:36:22.614Z,16.70
2022-10-06T09:38:55.438Z,16.70
2022-10-06T09:41:29.961Z,16.80
2022-10-06T09:44:00.371Z,17.10
2022-10-06T09:46:32.638Z,17.30
2022-10-06T09:49:10.183Z,17.40
2022-10-06T09:51:38.319Z,17.40
2022-10-06T09:54:15.204Z,17.40
2022-10-06T09:56:47.196Z,17.40
2022-10-06T09:59:22.971Z,17.50
2022-10-06T10:01:55.649Z,17.40
2022-10-06T10:04:27.267Z,17.40
2022-10-06T10:06:56.584Z,17.50
2022-10-06T10:09:29.891Z,17.60
2022-10-06T10:12:27.871Z,17.60
2022-10-06T10:15:02.330Z,17.60
2022-10-06T10:17:43.650Z,17.60
2022-10-06T10:20:29.037Z,17.70
2022-10-06T10:22:59.538Z,17.70
2022-10-06T10:25:44.523Z,17.70
2022-10-06T10:28:28.236Z,17.70
2022-10-06T10:31:04.377Z,17.80
2022-10-06T10:33:49.606Z,17.90
2022-10-06T10:36:35.036Z,18.00
2022-10-06T10:39:08.838Z,18.10
2022-10-06T10:41:43.942Z,18.20
2022-10-06T10:44:25.191Z,18.40
2022-10-06T10:46:57.113Z,18.50
2022-10-06T10:49:29.829Z,18.80
2022-10-06T10:52:04.715Z,19.00
2022-10-06T10:54:39.228Z,19.00
2022-10-06T10:57:14.204Z,19.00
2022-10-06T10:59:57.329Z,19.00
2022-10-06T11:02:26.953Z,19.20
2022-10-06T11:05:00.800Z,19.40
2022-10-06T11:07:36.618Z,19.50
2022-10-06T11:10:13.876Z,19.60
2022-10-06T11:13:05.537Z,19.60
2022-10-06T11:15:52.038Z,19.60
2022-10-06T11:18:33.410Z,19.60
2022-10-06T11:21:08.108Z,19.70
2022-10-06T11:23:48.588Z,19.60
2022-10-06T11:26:36.572Z,19.60
2022-10-06T11:29:16.652Z,19.60
2022-10-06T11:31:54.708Z,19.70
2022-10-06T11:34:26.420Z,19.90
2022-10-06T11:37:01.815Z,19.90
2022-10-06T11:39:49.552Z,20.00
2022-10-06T11:42:25.553Z,19.90
2022-10-06T11:45:04.216Z,19.80
2022-10-06T11:47:42.445Z,19.60
2022-10-06T11:50:36.511Z,19.60
2022-10-06T11:53:05.665Z,19.60
2022-10-06T11:55:33.796Z,19.60
2022-10-06T12:01:02.168Z,19.90
2022-10-06T12:04:05.924Z,19.70
2022-10-06T12:07:04.364Z,19.50
2022-10-06T12:09:53.476Z,19.60
2022-10-06T12:13:06.189Z,19.80
2022-10-06T12:17:08.443Z,19.90
2022-10-06T12:19:19.928Z,19.70
2022-10-06T12:21:54.966Z,19.60
2022-10-06T12:24:37.595Z,19.40
2022-10-06T12:27:40.725Z,19.30
2022-10-06T12:30:22.619Z,19.30
2022-10-06T12:32:54.371Z,19.30
2022-10-06T12:35:31.416Z,19.20
2022-10-06T12:38:04.761Z,19.20
2022-10-06T12:40:57.005Z,19.20
2022-10-06T12:43:35.270Z,19.20
2022-10-06T12:46:07.929Z,19.40
2022-10-06T12:48:42.507Z,19.60
2022-10-06T12:51:24.571Z,19.70
2022-10-06T12:54:00.200Z,19.60
2022-10-06T12:56:31.518Z,19.70
2022-10-06T12:58:59.809Z,19.80
2022-10-06T13:01:29.220Z,19.60
2022-10-06T13:03:57.477Z,19.50
2022-10-06T13:06:27.353Z,19.30
2022-10-06T13:09:07.972Z,19.30
2022-10-06T13:11:36.706Z,19.20
2022-10-06T13:14:15.003Z,19.20
2022-10-06T13:16:46.402Z,19.10
2022-10-06T13:19:18.883Z,19.10
2022-10-06T13:21:49.983Z,19.10
2022-10-06T13:24:27.785Z,19.00
2022-10-06T13:26:56.214Z,19.00
2022-10-06T13:29:26.139Z,19.00
2022-10-06T13:31:56.925Z,19.00
2022-10-06T13:34:31.058Z,19.00
2022-10-06T13:37:02.865Z,18.90
2022-10-06T13:39:31.867Z,18.90
2022-10-06T13:42:05.714Z,18.90
2022-10-06T13:44:39.633Z,18.90
2022-10-06T13:47:17.159Z,18.90
2022-10-06T13:49:50.301Z,18.90
2022-10-06T13:52:29.192Z,18.90
2022-10-06T13:55:00.650Z,18.90
2022-10-06T13:57:42.152Z,18.90
2022-10-06T14:00:20.301Z,18.90
2022-10-06T14:02:50.567Z,18.90
2022-10-06T14:05:37.497Z,18.90
2022-10-06T14:08:22.724Z,18.90
2022-10-06T14:10:54.008Z,18.80
2022-10-06T14:13:24.862Z,18.80
2022-10-06T14:15:56.138Z,18.80
2022-10-06T14:18:27.584Z,18.70
2022-10-06T14:20:56.473Z,18.70
2022-10-06T14:23:41.222Z,18.70
2022-10-06T14:26:11.099Z,18.70
2022-10-06T14:28:40.000Z,18.60
2022-10-06T14:31:13.503Z,18.60
2022-10-06T14:33:44.206Z,18.60
2022-10-06T14:36:21.510Z,18.60
2022-10-06T14:38:52.151Z,18.60
2022-10-06T14:41:25.588Z,18.50
2022-10-06T14:43:55.396Z,18.50
2022-10-06T14:46:24.425Z,18.50
2022-10-06T14:48:52.664Z,18.50
2022-10-06T14:51:24.368Z,18.50
2022-10-06T14:53:54.634Z,18.40
2022-10-06T14:56:23.902Z,18.40
2022-10-06T14:58:52.916Z,18.40
2022-10-06T15:01:24.546Z,18.40
2022-10-06T15:03:53.042Z,18.40
2022-10-06T15:06:38.742Z,18.40
2022-10-06T15:09:08.751Z,18.40
2022-10-06T15:11:37.389Z,18.30
2022-10-06T15:14:09.563Z,18.20
2022-10-06T15:16:40.725Z,18.20
2022-10-06T15:19:11.001Z,18.10
2022-10-06T15:21:40.064Z,18.00
2022-10-06T15:24:13.433Z,17.90
2022-10-06T15:27:00.109Z,17.80
2022-10-06T15:29:28.672Z,17.70
2022-10-06T15:31:59.237Z,17.60
2022-10-06T15:34:29.071Z,17.60
2022-10-06T15:36:58.841Z,17.50
2022-10-06T15:39:29.922Z,17.50
2022-10-06T15:41:58.759Z,17.40
2022-10-06T15:44:27.176Z,17.30
2022-10-06T15:46:56.611Z,17.30
2022-10-06T15:49:37.779Z,17.20
2022-10-06T15:52:06.887Z,17.10
2022-10-06T15:54:41.790Z,17.00
2022-10-06T15:57:17.838Z,17.00
2022-10-06T15:59:48.889Z,16.90
2022-10-06T16:02:19.698Z,16.80
2022-10-06T16:05:16.284Z,16.80
2022-10-06T16:07:44.631Z,16.70
2022-10-06T16:10:14.221Z,16.60
2022-10-06T16:12:44.153Z,16.50
2022-10-06T16:15:12.744Z,16.50
2022-10-06T16:17:40.903Z,16.40
2022-10-06T16:20:12.141Z,16.40
2022-10-06T16:22:40.684Z,16.30
2022-10-06T16:25:11.415Z,16.20
2022-10-06T16:27:40.769Z,16.20
2022-10-06T16:30:10.112Z,16.10
2022-10-06T16:32:38.793Z,16.00
2022-10-06T16:35:08.071Z,16.00
2022-10-06T16:37:36.042Z,15.90
2022-10-06T16:40:04.361Z,15.80
2022-10-06T16:42:33.281Z,15.80
2022-10-06T16:45:03.993Z,15.80
2022-10-06T16:47:32.259Z,15.70
2022-10-06T16:50:00.396Z,15.60
2022-10-06T16:52:28.382Z,15.50
2022-10-06T16:54:57.186Z,15.50
2022-10-06T16:57:25.405Z,15.40
2022-10-06T16:59:53.559Z,15.40
2022-10-06T17:02:22.995Z,15.30
2022-10-06T17:04:51.417Z,15.20
2022-10-06T17:07:19.603Z,15.20
2022-10-06T17:10:08.431Z,15.10
2022-10-06T17:12:35.909Z,15.10
2022-10-06T17:15:04.044Z,15.00
2022-10-06T17:17:33.459Z,15.00
2022-10-06T17:20:01.983Z,15.00
2022-10-06T17:22:30.023Z,14.90
2022-10-06T17:25:00.487Z,14.90
2022-10-06T17:27:32.656Z,14.80
2022-10-06T17:30:00.801Z,14.70
2022-10-06T17:32:30.460Z,14.70
2022-10-06T17:35:00.085Z,14.60
2022-10-06T17:37:29.874Z,14.50
2022-10-06T17:39:57.995Z,14.40
2022-10-06T17:42:26.976Z,14.30
2022-10-06T17:44:54.985Z,14.30
2022-10-06T17:47:23.166Z,14.20
2022-10-06T17:49:51.598Z,14.20
2022-10-06T17:52:24.249Z,14.20
2022-10-06T17:54:54.382Z,14.20
2022-10-06T17:57:22.494Z,14.10
2022-10-06T17:59:50.475Z,14.00
2022-10-06T18:02:19.726Z,14.00
2022-10-06T18:04:50.371Z,13.90
2022-10-06T18:07:18.323Z,13.80
2022-10-06T18:10:08.224Z,13.80
2022-10-06T18:12:38.604Z,13.80
2022-10-06T18:15:08.981Z,13.70
2022-10-06T18:17:37.009Z,13.70
2022-10-06T18:20:06.376Z,13.60
2022-10-06T18:22:34.454Z,13.60
2022-10-06T18:25:04.362Z,13.60
2022-10-06T18:27:33.521Z,13.60
2022-10-06T18:30:01.580Z,13.60
2022-10-06T18:38:06.743Z,13.40
2022-10-06T18:40:36.211Z,13.30
2022-10-06T18:43:04.239Z,13.40
2022-10-06T18:45:46.199Z,13.30
2022-10-06T18:48:31.956Z,13.20
2022-10-06T18:51:01.413Z,13.20
2022-10-06T18:53:39.318Z,13.10
2022-10-06T18:56:08.818Z,13.10
2022-10-06T18:58:40.459Z,13.10
2022-10-06T19:01:09.151Z,13.10
2022-10-06T19:03:37.698Z,13.10
2022-10-06T19:06:07.467Z,13.10
2022-10-06T19:08:35.886Z,13.00
2022-10-06T19:11:22.894Z,12.90
2022-10-06T19:13:53.598Z,12.80
2022-10-06T19:16:21.892Z,12.70
2022-10-06T19:18:50.402Z,12.60
2022-10-06T19:21:18.350Z,12.60
2022-10-06T19:23:46.924Z,12.60
2022-10-06T19:26:15.051Z,12.60
2022-10-06T19:28:43.177Z,12.60
2022-10-06T19:31:14.982Z,12.60
2022-10-06T19:33:43.726Z,12.60
2022-10-06T19:36:12.030Z,12.50
2022-10-06T19:38:40.634Z,12.50
2022-10-06T19:41:26.570Z,12.40
2022-10-06T19:43:54.891Z,12.40
2022-10-06T19:46:24.278Z,12.30
2022-10-06T19:48:54.219Z,12.30
2022-10-06T19:51:23.978Z,12.30
2022-10-06T19:53:52.559Z,12.20
2022-10-06T19:56:23.350Z,12.30
2022-10-06T19:58:51.939Z,12.20
2022-10-06T20:01:20.379Z,12.10
2022-10-06T20:03:49.880Z,12.10
2022-10-06T20:06:18.386Z,12.10
2022-10-06T20:08:46.490Z,12.10
2022-10-06T20:11:17.082Z,12.00
2022-10-06T20:13:46.552Z,12.10
2022-10-06T20:16:17.356Z,12.10
2022-10-06T20:18:47.568Z,12.00
2022-10-06T20:21:18.684Z,11.90
2022-10-06T20:23:50.251Z,11.90
2022-10-06T20:26:20.153Z,11.80
2022-10-06T20:28:49.019Z,11.80
2022-10-06T20:31:19.095Z,11.80
2022-10-06T20:33:49.325Z,11.80
2022-10-06T20:36:19.498Z,11.70
2022-10-06T20:39:05.136Z,11.70
2022-10-06T20:41:34.270Z,11.60
2022-10-06T20:44:03.659Z,11.60
2022-10-06T20:46:33.939Z,11.60
2022-10-06T20:49:04.010Z,11.50
2022-10-06T20:51:34.251Z,11.50
2022-10-06T20:54:03.667Z,11.50
2022-10-06T20:56:32.306Z,11.50
2022-10-06T20:59:01.211Z,11.40
2022-10-06T21:01:30.318Z,11.40
2022-10-06T21:03:58.554Z,11.40
2022-10-06T21:06:27.018Z,11.30
2022-10-06T21:08:57.108Z,11.30
2022-10-06T21:11:27.310Z,11.30
2022-10-06T21:13:55.898Z,11.30
2022-10-06T21:16:26.171Z,11.20
2022-10-06T21:18:55.061Z,11.20
2022-10-06T21:21:23.145Z,11.20
2022-10-06T21:23:51.253Z,11.20
2022-10-06T21:26:23.153Z,11.10
2022-10-06T21:28:53.353Z,11.20
2022-10-06T21:31:23.383Z,11.30
2022-10-06T21:33:53.172Z,11.20
2022-10-06T21:36:23.008Z,11.10
2022-10-06T21:38:52.935Z,11.10
2022-10-06T21:41:30.090Z,11.10
2022-10-06T21:44:00.547Z,11.00
2022-10-06T21:46:31.116Z,11.00
2022-10-06T21:49:00.907Z,11.00
2022-10-06T21:51:31.130Z,11.00
2022-10-06T21:54:01.400Z,11.00
2022-10-06T21:56:32.702Z,11.00
2022-10-06T21:59:01.705Z,11.00
2022-10-06T22:01:31.632Z,10.90
2022-10-06T22:04:01.221Z,10.80
2022-10-06T22:06:30.293Z,10.80
2022-10-06T22:08:59.575Z,10.80
2022-10-06T22:11:31.327Z,10.80
2022-10-06T22:14:01.235Z,10.80
2022-10-06T22:16:31.549Z,10.80
2022-10-06T22:19:00.670Z,10.70
2022-10-06T22:21:30.346Z,10.70
2022-10-06T22:24:00.192Z,10.60
2022-10-06T22:26:31.652Z,10.60
2022-10-06T22:29:00.520Z,10.70
2022-10-06T22:31:31.034Z,10.60
2022-10-06T22:34:00.853Z,10.60
2022-10-06T22:36:29.860Z,10.60
2022-10-06T22:38:58.582Z,10.50
2022-10-06T22:41:27.094Z,10.50
2022-10-06T22:43:58.876Z,10.50
2022-10-06T22:46:28.090Z,10.60
2022-10-06T22:48:56.959Z,10.50
2022-10-06T22:51:26.165Z,10.50
2022-10-06T22:53:58.361Z,10.50
2022-10-06T22:56:27.579Z,10.50
2022-10-06T22:58:59.694Z,10.50
2022-10-06T23:01:29.598Z,10.50
2022-10-06T23:03:58.189Z,10.50
2022-10-06T23:06:26.818Z,10.40
2022-10-06T23:08:55.026Z,10.40
2022-10-06T23:11:23.871Z,10.40
2022-10-06T23:13:53.421Z,10.30
2022-10-06T23:16:23.126Z,10.30
2022-10-06T23:18:51.589Z,10.30
2022-10-06T23:21:22.704Z,10.30
2022-10-06T23:23:53.429Z,10.30
2022-10-06T23:26:22.983Z,10.20
2022-10-06T23:28:55.767Z,10.20
2022-10-06T23:31:25.935Z,10.20
2022-10-06T23:33:55.358Z,10.10
2022-10-06T23:36:23.852Z,10.10
2022-10-06T23:38:51.981Z,10.10
2022-10-06T23:41:20.197Z,10.10
2022-10-06T23:43:50.588Z,10.10
2022-10-06T23:46:19.197Z,10.10
2022-10-06T23:48:49.269Z,10.10
2022-10-06T23:51:17.709Z,10.00
2022-10-06T23:53:46.119Z,10.00
2022-10-06T23:56:14.614Z,10.00
2022-10-06T23:58:42.927Z,10.00
